Mia-s — V2EI7 — position and weather

sailwx.info

Track history (hours):
 
Tides and Currents Weather Stations Pressure Air Temp Water Temp Dewpoint Dewpoint Depression Visibility Wind Speed Wind Dir Waves Ship Positions

Mia-s

Last reported at 2014-Aug-12 02:21 UTC. Time now 2014-Aug-20 14:44 UTC.
Position N 33°15' W 126°08'.
Warning: this ship's position is 8 days out of date.

Length 190 m; draft 11.2 m.

Type: Cargo ship. MMSI: 305442000.

Date/timePositionNaut miles runAvg speedWind from/ knotsBaromVisibWave heightAir tempDewpointWater temp
2014-Aug-12 02:21N 33°15' W 126°08'910.9
2014-Aug-12 01:32N 33°09' W 125°59'19411.4
2014-Aug-11 08:34N 31°11' W 122°58'1511.1
2014-Aug-11 07:10N 31°01' W 122°44'911.0
2014-Aug-11 06:23N 30°55' W 122°37'1111.0
2014-Aug-11 05:24N 30°49' W 122°27'1011.0
2014-Aug-11 04:32N 30°42' W 122°18'1211.0
2014-Aug-11 03:28N 30°35' W 122°08'1310.8
2014-Aug-11 02:17N 30°29' W 121°55'911.0
2014-Aug-11 01:28N 30°27' W 121°45'1111.4
2014-Aug-11 00:32N 30°29' W 121°33'2311.5
2014-Aug-10 22:32N 30°34' W 121°06'1111.8
2014-Aug-10 21:33N 30°37' W 120°53'1511.8
2014-Aug-10 20:19N 30°40' W 120°37'3311.5
2014-Aug-10 17:26N 30°47' W 119°59'1211.4
2014-Aug-10 16:21N 30°50' W 119°45'4511.8
2014-Aug-10 12:34N 30°60' W 118°54'1511.3
2014-Aug-10 11:14N 31°03' W 118°37'710.0
2014-Aug-10 10:34N 31°08' W 118°31'1211.7
2014-Aug-10 09:34N 31°18' W 118°26'1211.8
2014-Aug-10 08:34N 31°29' W 118°20'1212.1
2014-Aug-10 07:34N 31°40' W 118°15'1212.1
2014-Aug-10 06:34N 31°51' W 118°09'1212.0
2014-Aug-10 05:33N 32°02' W 118°03'1212.1
2014-Aug-10 04:33N 32°13' W 117°58'1211.9
2014-Aug-10 03:33N 32°24' W 117°52'1111.4
2014-Aug-10 02:34N 32°35' W 117°48'1212.1
2014-Aug-10 01:34N 32°47' W 117°52'1212.2
2014-Aug-10 00:34N 32°58' W 117°57'1212.1
2014-Aug-09 23:33N 33°10' W 118°02'1212.2
2014-Aug-09 22:33N 33°21' W 118°07'1412.3
2014-Aug-09 21:23N 33°35' W 118°13'  
2014-Aug-05 21:31N 33°46' W 118°15'0 0.0
2014-Aug-05 05:13N 33°46' W 118°15'0 0.0
2014-Aug-05 04:13N 33°46' W 118°15'0 0.0
2014-Aug-05 03:25N 33°46' W 118°15'0 0.0
2014-Aug-05 02:31N 33°46' W 118°15'0 0.0
2014-Aug-04 13:13N 33°46' W 118°15'2 3.7
2014-Aug-04 12:33N 33°43' W 118°16'2 0.1
2014-Aug-03 11:15N 33°44' W 118°14'0 0.0
2014-Aug-03 10:33N 33°44' W 118°14'0 0.0
2014-Aug-03 09:27N 33°44' W 118°14'0 0.1
2014-Aug-03 08:33N 33°44' W 118°14'0 0.1
2014-Aug-03 07:06N 33°44' W 118°14'0 0.1
2014-Aug-03 05:21N 33°44' W 118°14'0 0.1
2014-Aug-03 04:33N 33°44' W 118°14'0 0.0
2014-Aug-03 03:27N 33°44' W 118°14'0 0.0
2014-Aug-02 21:27N 33°44' W 118°14'0 0.1
2014-Aug-02 20:33N 33°44' W 118°14'0 0.0
2014-Aug-02 19:33N 33°44' W 118°14'0 0.1
2014-Aug-02 18:30N 33°44' W 118°14'0 0.0
2014-Aug-02 17:33N 33°44' W 118°14'0 0.2
2014-Aug-02 16:33N 33°44' W 118°14'0 0.1
2014-Aug-02 15:12N 33°44' W 118°14'0 0.1
2014-Aug-02 14:30N 33°44' W 118°14'0 0.1
2014-Aug-02 13:33N 33°44' W 118°14'0 0.1
2014-Aug-02 12:30N 33°44' W 118°14'0 0.0
2014-Aug-02 11:30N 33°44' W 118°14'0 0.1
2014-Aug-02 10:33N 33°44' W 118°14'0 0.0
2014-Aug-02 09:33N 33°44' W 118°14'0 0.0
2014-Aug-02 08:33N 33°44' W 118°14'0 0.0
2014-Aug-02 07:33N 33°44' W 118°14'0 0.1
2014-Aug-02 06:33N 33°44' W 118°14'0 0.0
2014-Aug-02 05:33N 33°44' W 118°14'0 0.0
2014-Aug-02 04:33N 33°44' W 118°14'0 0.0
2014-Aug-02 03:33N 33°44' W 118°14'0 0.1
2014-Aug-02 02:33N 33°44' W 118°14'  
Track history (hours):
 
Tides and Currents Weather Stations Pressure Air Temp Water Temp Dewpoint Dewpoint Depression Visibility Wind Speed Wind Dir Waves Ship Positions

Mia-s

Last reported at 2014-Aug-12 02:21 UTC. Time now 2014-Aug-20 14:44 UTC.
Position N 33°15' W 126°08'.
Warning: this ship's position is 8 days out of date.

Length 190 m; draft 11.2 m.

Type: Cargo ship. MMSI: 305442000.

Date/timePositionNaut miles runAvg speedWind from/ knotsBaromVisibWave heightAir tempDewpointWater temp
2014-Aug-12 02:21N 33°15' W 126°08'910.9
2014-Aug-12 01:32N 33°09' W 125°59'19411.4
2014-Aug-11 08:34N 31°11' W 122°58'1511.1
2014-Aug-11 07:10N 31°01' W 122°44'911.0
2014-Aug-11 06:23N 30°55' W 122°37'1111.0
2014-Aug-11 05:24N 30°49' W 122°27'1011.0
2014-Aug-11 04:32N 30°42' W 122°18'1211.0
2014-Aug-11 03:28N 30°35' W 122°08'1310.8
2014-Aug-11 02:17N 30°29' W 121°55'911.0
2014-Aug-11 01:28N 30°27' W 121°45'1111.4
2014-Aug-11 00:32N 30°29' W 121°33'2311.5
2014-Aug-10 22:32N 30°34' W 121°06'1111.8
2014-Aug-10 21:33N 30°37' W 120°53'1511.8
2014-Aug-10 20:19N 30°40' W 120°37'3311.5
2014-Aug-10 17:26N 30°47' W 119°59'1211.4
2014-Aug-10 16:21N 30°50' W 119°45'4511.8
2014-Aug-10 12:34N 30°60' W 118°54'1511.3
2014-Aug-10 11:14N 31°03' W 118°37'710.0
2014-Aug-10 10:34N 31°08' W 118°31'1211.7
2014-Aug-10 09:34N 31°18' W 118°26'1211.8
2014-Aug-10 08:34N 31°29' W 118°20'1212.1
2014-Aug-10 07:34N 31°40' W 118°15'1212.1
2014-Aug-10 06:34N 31°51' W 118°09'1212.0
2014-Aug-10 05:33N 32°02' W 118°03'1212.1
2014-Aug-10 04:33N 32°13' W 117°58'1211.9
2014-Aug-10 03:33N 32°24' W 117°52'1111.4
2014-Aug-10 02:34N 32°35' W 117°48'1212.1
2014-Aug-10 01:34N 32°47' W 117°52'1212.2
2014-Aug-10 00:34N 32°58' W 117°57'1212.1
2014-Aug-09 23:33N 33°10' W 118°02'1212.2
2014-Aug-09 22:33N 33°21' W 118°07'1412.3
2014-Aug-09 21:23N 33°35' W 118°13'  
2014-Aug-05 21:31N 33°46' W 118°15'0 0.0
2014-Aug-05 05:13N 33°46' W 118°15'0 0.0
2014-Aug-05 04:13N 33°46' W 118°15'0 0.0
2014-Aug-05 03:25N 33°46' W 118°15'0 0.0
2014-Aug-05 02:31N 33°46' W 118°15'0 0.0
2014-Aug-04 13:13N 33°46' W 118°15'2 3.7
2014-Aug-04 12:33N 33°43' W 118°16'2 0.1
2014-Aug-03 11:15N 33°44' W 118°14'0 0.0
2014-Aug-03 10:33N 33°44' W 118°14'0 0.0
2014-Aug-03 09:27N 33°44' W 118°14'0 0.1
2014-Aug-03 08:33N 33°44' W 118°14'0 0.1
2014-Aug-03 07:06N 33°44' W 118°14'0 0.1
2014-Aug-03 05:21N 33°44' W 118°14'0 0.1
2014-Aug-03 04:33N 33°44' W 118°14'0 0.0
2014-Aug-03 03:27N 33°44' W 118°14'0 0.0
2014-Aug-02 21:27N 33°44' W 118°14'0 0.1
2014-Aug-02 20:33N 33°44' W 118°14'0 0.0
2014-Aug-02 19:33N 33°44' W 118°14'0 0.1
2014-Aug-02 18:30N 33°44' W 118°14'0 0.0
2014-Aug-02 17:33N 33°44' W 118°14'0 0.2
2014-Aug-02 16:33N 33°44' W 118°14'0 0.1
2014-Aug-02 15:12N 33°44' W 118°14'0 0.1
2014-Aug-02 14:30N 33°44' W 118°14'0 0.1
2014-Aug-02 13:33N 33°44' W 118°14'0 0.1
2014-Aug-02 12:30N 33°44' W 118°14'0 0.0
2014-Aug-02 11:30N 33°44' W 118°14'0 0.1
2014-Aug-02 10:33N 33°44' W 118°14'0 0.0
2014-Aug-02 09:33N 33°44' W 118°14'0 0.0
2014-Aug-02 08:33N 33°44' W 118°14'0 0.0
2014-Aug-02 07:33N 33°44' W 118°14'0 0.1
2014-Aug-02 06:33N 33°44' W 118°14'0 0.0
2014-Aug-02 05:33N 33°44' W 118°14'0 0.0
2014-Aug-02 04:33N 33°44' W 118°14'0 0.0
2014-Aug-02 03:33N 33°44' W 118°14'0 0.1
2014-Aug-02 02:33N 33°44' W 118°14'  

Dump ship's entire track history